Thunder radar more information blitzortung!


Löydät sääaseman tiedot myös:

European Weather Network

Finland Weather Exchange

Weather Underground

AWEKAS



Weather Underground säähistoriasivu

Päivittäin yhteenveto Marraskuu 22, 2017 Yksiköt:  Englantilaiset    Metriset   Molemmat
« Edellinen Päivä
Seuraava Päivä »
Päivittäin Viikoittain Kuukausittain Vuosittain Mukautettu
  Korkea: Matala: Keskiarvo:
Lämpötila: TemperatureC °F -3.3 °F -1.8 °F
Kastepiste: DewpointC °F -4.4 °F -2.4 °F
Kosteus: Humidity % 92 % 95 %
Tuulen nopeus: WindSpeedKMH mph 0.0 mph 0.3 mph
Tuulenpuuska: WindSpeedGustKMH mph - -
Tuuli:- - SE
Ilmanpaine: PressurehPa in 1011.7 in -
Sade: 0.0 in    
Historical Graphs
 
 
Taulukkotiedot Marraskuu 22, 2017
Aika Lämpötila Kastepiste Ilmanpaine Tuuli Tuulen nopeus Tuulenpuuska Kosteus Sademäärä (tunneittain)
TemperatureC °F DewpointC °F PressurehPa in Calm     Humidity % HourlyPrecipMM in
00:00 -1.7 °F -1.9 °F 1011.7 in Calm     98 % 0.0 in
00:15 -1.7 °F -2.0 °F 1011.7 in Calm     98 % 0.0 in
00:30 -1.7 °F -2.0 °F 1011.7 in Calm     98 % 0.0 in
00:45 -1.7 °F -2.0 °F 1011.7 in Calm     98 % 0.0 in
01:15 -1.7 °F -2.0 °F 1011.7 in Calm     98 % 0.0 in
01:30 -1.7 °F -2.0 °F 1011.7 in Calm     98 % 0.0 in
02:00 -1.7 °F -2.0 °F 1012.1 in Calm     98 % 0.0 in
02:15 -1.7 °F -2.0 °F 1012.1 in Calm     98 % 0.0 in
02:30 -1.7 °F -2.0 °F 1012.1 in Calm     98 % 0.0 in
03:00 -1.9 °F -2.2 °F 1012.1 in Calm     98 % 0.0 in
03:45 -1.8 °F -2.1 °F 1012.4 in Calm     98 % 0.0 in
04:00 -1.8 °F -2.1 °F 1012.1 in Calm     98 % 0.0 in
04:15 -1.8 °F -2.1 °F 1012.4 in Calm     98 % 0.0 in
04:30 -1.8 °F -2.1 °F 1012.4 in Calm     98 % 0.0 in
05:30 -1.7 °F -2.1 °F 1012.4 in Calm     97 % 0.0 in
05:45 -1.7 °F -2.1 °F 1012.4 in Calm   3.2 mph 97 % 0.0 in
06:00 -1.7 °F -2.1 °F 1012.4 in Calm   3.2 mph 97 % 0.0 in
06:15 -1.7 °F -2.1 °F 1012.4 in Calm     97 % 0.0 in
07:00 -1.7 °F -2.1 °F 1012.4 in Calm     97 % 0.0 in
07:15 -1.7 °F -2.1 °F 1012.4 in Calm     97 % 0.0 in
07:30 -1.7 °F -2.1 °F 1012.8 in Calm   1.6 mph 97 % 0.0 in
07:45 -1.7 °F -2.1 °F 1012.8 in Calm     97 % 0.0 in
08:00 -1.7 °F -2.1 °F 1012.8 in Calm     97 % 0.0 in
08:15 -1.7 °F -2.1 °F 1012.8 in Calm     97 % 0.0 in
08:30 -1.7 °F -2.1 °F 1013.1 in Calm   1.6 mph 97 % 0.0 in
08:45 -1.7 °F -2.1 °F 1013.1 in Calm     97 % 0.0 in
09:00 -1.7 °F -2.1 °F 1013.1 in Calm   1.6 mph 97 % 0.0 in
09:15 -1.8 °F -2.2 °F 1013.1 in Calm   1.6 mph 97 % 0.0 in
09:30 -1.7 °F -2.1 °F 1013.1 in Calm     97 % 0.0 in
09:45 -1.7 °F -2.1 °F 1013.1 in Calm   1.6 mph 97 % 0.0 in
10:00 -1.7 °F -2.1 °F 1013.4 in Calm     97 % 0.0 in
10:15 -1.7 °F -2.1 °F 1013.8 in Calm   1.6 mph 97 % 0.0 in
10:30 -1.7 °F -2.1 °F 1013.8 in Calm   1.6 mph 97 % 0.0 in
10:45 -1.6 °F -2.0 °F 1013.8 in Calm   3.2 mph 97 % 0.0 in
11:00 -1.6 °F -2.0 °F 1014.1 in Calm     97 % 0.0 in
11:15 -1.6 °F -2.0 °F 1014.1 in Calm     97 % 0.0 in
11:30 -1.4 °F -1.9 °F 1014.1 in Calm   1.6 mph 97 % 0.0 in
11:45 -1.4 °F -1.9 °F 1014.1 in Calm     97 % 0.0 in
12:30 -1.3 °F -1.7 °F 1014.4 in Calm   4.8 mph 97 % 0.0 in
13:45 -1.1 °F -1.6 °F 1014.1 in Calm   3.2 mph 96 % 0.0 in
14:00 -1.1 °F -1.6 °F 1014.1 in Calm   3.2 mph 96 % 0.0 in
14:15 -1.1 °F -1.7 °F 1014.4 in Calm   6.4 mph 96 % 0.0 in
14:30 -1.1 °F -1.7 °F 1014.4 in Calm   3.2 mph 96 % 0.0 in
14:45 -1.2 °F -1.7 °F 1014.4 in Calm     96 % 0.0 in
15:30 -1.2 °F -1.9 °F 1014.8 in SSE 1.6 mph 6.4 mph 95 % 0.0 in
15:45 -1.2 °F -1.8 °F 1014.8 in Calm   3.2 mph 96 % 0.0 in
16:00 -1.2 °F -1.8 °F 1014.8 in Calm     96 % 0.0 in
16:30 -1.3 °F -2.0 °F 1014.8 in Calm   6.4 mph 95 % 0.0 in
16:45 -1.3 °F -2.0 °F 1014.8 in Calm   3.2 mph 95 % 0.0 in
17:00 -1.4 °F -2.1 °F 1014.8 in Calm   8.0 mph 95 % 0.0 in
17:15 -1.4 °F -2.1 °F 1014.8 in Calm   3.2 mph 95 % 0.0 in
17:30 -1.5 °F -2.2 °F 1014.8 in Calm   8.0 mph 95 % 0.0 in
17:45 -1.6 °F -2.3 °F 1014.8 in SE 1.6 mph 8.0 mph 95 % 0.0 in
18:00 -1.7 °F -2.4 °F 1014.8 in ESE 1.6 mph 8.0 mph 95 % 0.0 in
18:15 -1.7 °F -2.4 °F 1014.8 in Calm   3.2 mph 95 % 0.0 in
18:30 -1.8 °F -2.5 °F 1014.8 in Calm   6.4 mph 95 % 0.0 in
18:45 -1.8 °F -2.5 °F 1014.4 in Calm   3.2 mph 95 % 0.0 in
19:00 -1.9 °F -2.6 °F 1014.8 in Calm   6.4 mph 95 % 0.0 in
19:30 -2.1 °F -2.9 °F 1014.8 in Calm   6.4 mph 94 % 0.0 in
19:45 -2.2 °F -3.1 °F 1014.8 in Calm   8.0 mph 94 % 0.0 in
20:15 -2.4 °F -3.3 °F 1014.1 in Calm   9.7 mph 94 % 0.0 in
20:30 -2.6 °F -3.4 °F 1014.4 in SE 1.6 mph 9.7 mph 94 % 0.0 in
20:45 -2.7 °F -3.5 °F 1014.4 in Calm   8.0 mph 94 % 0.0 in
21:00 -2.7 °F -3.7 °F 1014.4 in South 1.6 mph 11.3 mph 93 % 0.0 in
21:15 -2.8 °F -3.8 °F 1014.8 in SE 1.6 mph 11.3 mph 93 % 0.0 in
21:45 -2.8 °F -3.8 °F 1014.1 in ESE 1.6 mph 8.0 mph 93 % 0.0 in
22:00 -2.9 °F -3.9 °F 1014.1 in Calm   6.4 mph 93 % 0.0 in
22:15 -2.9 °F -3.9 °F 1014.1 in Calm   4.8 mph 93 % 0.0 in
22:45 -3.1 °F -4.0 °F 1014.1 in ESE 1.6 mph 8.0 mph 93 % 0.0 in
23:00 -3.2 °F -4.1 °F 1013.8 in NNE 1.6 mph 6.4 mph 93 % 0.0 in
23:15 -3.3 °F -4.2 °F 1013.8 in SSE 1.6 mph 9.7 mph 93 % 0.0 in
23:30 -3.3 °F -4.4 °F 1014.1 in South 3.2 mph 14.5 mph 92 % 0.0 in
23:45 -3.3 °F -4.3 °F 1013.8 in SSE 1.6 mph 11.3 mph 93 % 0.0 in
Esan sääasema
Terveisin Weather Underground - 2.75 mb

Alkuperäinen skripti  Jim McMurry - jmcmurry@mwt.net Sovitettu myös templatelle  Wim van der Kuil - Leuven-Template.eu

Laitteet joita käytämme:

Sääasema
Davis VP2

Sääasemaohjelma
Cumulus

Sääaseman tietokone
Asus EeePC

Palveluntarjoaja
Suncomet

Davis VP2

Cumulus

Asus EeePC

Suncomet